Time;durP1;ratioP1;P1;durP2;ratioP2;P2;SDS_P1;SDS_P2;PMS_P1;PMS_P2;Temp;Humidity;BMP_temperature;BMP_pressure;BME280_temperature;BME280_humidity;BME280_pressure;Samples;Min_cycle;Max_cycle;Signal;HPM_P1;HPM_P2
2022/05/22 00:01:18;;;;;;;2.30;1.00;;;;;;;12.00;80.00;98848.34;4994636;28;20231;-49
2022/05/22 00:03:45;;;;;;;4.57;1.20;;;;;;;11.94;79.87;98863.66;4977621;28;20772;-50
2022/05/22 00:06:14;;;;;;;5.13;1.10;;;;;;;11.88;81.50;98848.56;4994989;28;20251;-50
2022/05/22 00:08:40;;;;;;;2.77;1.17;;;;;;;11.85;81.62;98846.25;4995276;28;20191;-50
2022/05/22 00:11:07;;;;;;;2.53;1.03;;;;;;;11.85;81.55;98843.66;4995021;28;20196;-50
2022/05/22 00:13:35;;;;;;;2.57;1.00;;;;;;;11.85;81.33;98835.78;4989903;28;20570;-50
2022/05/22 00:18:47;;;;;;;4.30;0.93;;;;;;;12.04;80.85;98847.91;4995430;28;20201;-50
2022/05/22 00:21:15;;;;;;;2.10;0.93;;;;;;;12.09;78.72;98843.03;4992246;28;20580;-50
2022/05/22 00:23:43;;;;;;;4.63;1.00;;;;;;;12.18;78.51;98838.63;4991777;28;20192;-50
2022/05/22 00:26:10;;;;;;;3.80;0.90;;;;;;;12.23;79.09;98841.59;4974295;28;20302;-50
2022/05/22 00:28:37;;;;;;;1.97;1.10;;;;;;;12.19;78.98;98836.84;4984267;28;20199;-49
2022/05/22 00:31:04;;;;;;;2.87;0.90;;;;;;;12.21;77.30;98833.09;4981376;28;20204;-49
2022/05/22 00:33:31;;;;;;;2.83;1.00;;;;;;;12.26;77.12;98827.38;4990587;28;20692;-49
2022/05/22 00:35:58;;;;;;;3.63;1.20;;;;;;;12.23;77.89;98828.53;4975957;28;20221;-49
2022/05/22 00:38:26;;;;;;;3.00;0.90;;;;;;;12.22;77.15;98811.19;4987861;28;20191;-49
2022/05/22 00:40:53;;;;;;;2.73;0.80;;;;;;;12.20;77.79;98802.66;4972213;28;20197;-49
2022/05/22 00:43:28;;;;;;;7.13;1.40;;;;;;;12.14;78.50;98816.38;4971218;28;20215;-49
2022/05/22 00:45:57;;;;;;;5.13;1.20;;;;;;;12.05;79.09;98826.00;4986593;28;20207;-49
2022/05/22 00:48:25;;;;;;;3.50;1.13;;;;;;;11.97;78.99;98823.28;4987904;28;20625;-49
2022/05/22 00:50:56;;;;;;;2.47;1.20;;;;;;;11.96;78.92;98832.13;4986634;28;20623;-49
2022/05/22 00:53:28;;;;;;;2.07;1.07;;;;;;;11.90;79.77;98817.84;4987175;28;20840;-49
2022/05/22 00:55:56;;;;;;;4.90;1.43;;;;;;;11.85;79.44;98814.88;4986826;28;20206;-49
2022/05/22 00:58:29;;;;;;;5.97;1.27;;;;;;;11.79;80.99;98805.88;4969645;28;20222;-49
2022/05/22 01:00:56;;;;;;;4.03;1.20;;;;;;;11.79;80.40;98810.25;4986690;28;20207;-49
2022/05/22 01:03:31;;;;;;;1.63;0.90;;;;;;;11.69;80.28;98804.31;4986913;28;20703;-49
2022/05/22 01:06:03;;;;;;;5.23;1.30;;;;;;;11.63;80.82;98809.19;4986614;28;20213;-49
2022/05/22 01:08:32;;;;;;;3.73;1.17;;;;;;;11.57;81.62;98806.38;4986330;28;20201;-49
2022/05/22 01:11:04;;;;;;;3.37;1.10;;;;;;;11.56;81.43;98817.78;4987421;28;20628;-49
2022/05/22 01:13:35;;;;;;;1.90;1.13;;;;;;;11.60;81.37;98825.19;4985963;28;20203;-49
2022/05/22 01:16:03;;;;;;;4.30;1.13;;;;;;;11.61;81.54;98818.16;4987389;28;20246;-49
2022/05/22 01:18:30;;;;;;;3.40;1.43;;;;;;;11.61;80.37;98818.16;4986900;28;20230;-49
2022/05/22 01:20:57;;;;;;;2.80;1.10;;;;;;;11.65;80.49;98811.66;4969892;28;20575;-49
2022/05/22 01:23:32;;;;;;;5.93;1.00;;;;;;;11.66;79.96;98814.09;4973772;28;20194;-49
2022/05/22 01:26:05;;;;;;;2.03;0.98;;;;;;;11.75;80.12;98822.00;4983808;28;20988;-49
2022/05/22 01:28:32;;;;;;;3.67;0.73;;;;;;;11.77;80.33;98814.81;4968989;28;20353;-49
2022/05/22 01:31:01;;;;;;;2.27;0.80;;;;;;;11.83;80.25;98822.06;4965117;28;20221;-49
2022/05/22 01:33:31;;;;;;;1.63;1.10;;;;;;;11.81;79.85;98827.44;4966666;28;20674;-49
2022/05/22 01:36:00;;;;;;;3.10;1.10;;;;;;;11.89;79.11;98821.44;4961933;28;20776;-49
2022/05/22 01:38:29;;;;;;;3.93;1.13;;;;;;;11.91;79.01;98822.09;4973497;28;20208;-49
2022/05/22 01:40:58;;;;;;;2.73;1.17;;;;;;;12.01;77.33;98814.19;4971529;28;20203;-49
2022/05/22 01:43:39;;;;;;;3.17;0.93;;;;;;;12.16;77.61;98808.38;4984165;28;20275;-49
2022/05/22 01:46:14;;;;;;;2.43;1.00;;;;;;;12.20;76.16;98817.53;4981482;28;20206;-49
2022/05/22 01:48:50;;;;;;;2.90;0.87;;;;;;;12.23;76.98;98814.59;4963535;28;20219;-49
2022/05/22 01:51:21;;;;;;;3.23;1.13;;;;;;;12.26;76.56;98816.91;4975234;28;20207;-49
2022/05/22 01:53:48;;;;;;;1.60;1.00;;;;;;;12.18;77.22;98809.06;4975210;28;20228;-49
2022/05/22 01:56:17;;;;;;;2.43;0.90;;;;;;;12.13;77.81;98799.03;4975537;28;20207;-49
2022/05/22 01:58:45;;;;;;;1.40;0.80;;;;;;;12.05;78.29;98801.59;4975073;28;20216;-49
2022/05/22 02:01:12;;;;;;;2.10;1.10;;;;;;;12.02;79.42;98794.06;4974539;28;20262;-49
2022/05/22 02:03:39;;;;;;;1.83;0.80;;;;;;;11.92;79.63;98789.75;4975082;28;20255;-49
2022/05/22 02:06:07;;;;;;;3.03;1.00;;;;;;;11.93;78.67;98774.88;4975085;28;20213;-49
2022/05/22 02:08:34;;;;;;;2.30;0.90;;;;;;;12.02;78.46;98781.81;4974832;28;20190;-49
2022/05/22 02:11:04;;;;;;;2.60;1.00;;;;;;;11.98;79.33;98766.56;4974612;28;20253;-49
2022/05/22 02:13:35;;;;;;;1.70;0.93;;;;;;;12.01;78.48;98763.66;4987055;28;20707;-49
2022/05/22 02:16:07;;;;;;;4.23;1.10;;;;;;;11.99;79.62;98763.78;4972745;28;20207;-49
2022/05/22 02:18:35;;;;;;;3.13;0.97;;;;;;;11.95;78.78;98763.28;4974586;28;20206;-49
2022/05/22 02:21:02;;;;;;;3.87;1.10;;;;;;;11.89;79.59;98757.84;4974631;28;20203;-49
2022/05/22 02:23:32;;;;;;;3.40;0.90;;;;;;;11.84;80.17;98760.13;4974644;28;20191;-51
2022/05/22 02:26:01;;;;;;;2.53;0.97;;;;;;;11.74;80.21;98766.28;4973366;28;20539;-50
2022/05/22 02:28:30;;;;;;;3.87;1.00;;;;;;;11.69;79.49;98763.31;4992669;28;20855;-49
2022/05/22 02:31:01;;;;;;;3.63;1.07;;;;;;;11.61;79.88;98761.47;4971560;28;20220;-49
2022/05/22 02:33:31;;;;;;;6.40;1.23;;;;;;;11.57;80.36;98760.13;4965046;28;20218;-49
2022/05/22 02:36:13;;;;;;;2.83;1.33;;;;;;;11.56;79.33;98762.91;4974017;28;20210;-49
2022/05/22 02:38:41;;;;;;;1.47;0.80;;;;;;;11.50;80.83;98759.91;4973988;28;20272;-49
2022/05/22 02:41:13;;;;;;;3.47;0.87;;;;;;;11.49;80.87;98754.84;4973844;28;20199;-49
2022/05/22 02:43:44;;;;;;;4.03;1.23;;;;;;;11.54;80.16;98750.00;4974302;28;20222;-49
2022/05/22 02:46:15;;;;;;;4.70;1.20;;;;;;;11.53;79.50;98748.34;4974063;28;20297;-49
2022/05/22 02:48:43;;;;;;;2.20;1.00;;;;;;;11.57;79.87;98749.69;4974205;28;20197;-49
2022/05/22 02:51:12;;;;;;;2.03;1.00;;;;;;;11.62;79.87;98746.59;4973229;28;20705;-49
2022/05/22 02:53:40;;;;;;;2.87;1.20;;;;;;;11.64;78.73;98745.47;4973595;28;20209;-49
2022/05/22 02:56:15;;;;;;;5.97;1.20;;;;;;;11.73;79.11;98746.34;4991765;28;20210;-49
2022/05/22 02:59:12;;;;;;;2.43;1.10;;;;;;;11.85;78.28;98746.88;4978382;28;20203;-49
2022/05/22 03:01:48;;;;;;;1.37;0.80;;;;;;;11.79;78.43;98739.66;4989721;28;20222;-49
2022/05/22 03:04:15;;;;;;;5.17;1.10;;;;;;;11.78;79.05;98745.84;4990139;28;20190;-49
2022/05/22 03:06:42;;;;;;;5.10;1.40;;;;;;;11.73;78.55;98740.25;4990052;28;20206;-49
2022/05/22 03:09:12;;;;;;;2.67;1.30;;;;;;;11.68;78.34;98735.50;4973788;28;20222;-49
2022/05/22 03:11:42;;;;;;;3.33;1.10;;;;;;;11.59;77.78;98739.88;4989606;28;20644;-49
2022/05/22 03:14:10;;;;;;;2.53;1.20;;;;;;;11.54;78.66;98734.31;4973372;28;20222;-49
2022/05/22 03:16:38;;;;;;;1.53;1.00;;;;;;;11.48;78.09;98740.94;4973988;28;20229;-49
2022/05/22 03:19:13;;;;;;;2.47;1.20;;;;;;;11.42;78.34;98738.94;4965985;28;20195;-49
2022/05/22 03:21:59;;;;;;;3.93;1.03;;;;;;;11.34;79.00;98731.06;4983062;28;20358;-49
2022/05/22 03:24:26;;;;;;;2.87;0.83;;;;;;;11.30;80.57;98727.09;4974109;28;20255;-49
2022/05/22 03:26:53;;;;;;;2.07;0.90;;;;;;;11.23;80.03;98726.91;4989582;28;20194;-49
2022/05/22 03:29:21;;;;;;;1.63;1.10;;;;;;;11.21;81.00;98723.63;4973659;28;20561;-49
2022/05/22 03:31:52;;;;;;;3.63;1.43;;;;;;;11.18;80.42;98718.72;4975022;28;20214;-49
2022/05/22 03:34:21;;;;;;;3.43;0.77;;;;;;;11.21;79.86;98715.78;4977001;28;20226;-49
2022/05/22 03:36:52;;;;;;;1.97;1.00;;;;;;;11.15;80.54;98708.56;4977561;28;20205;-49
2022/05/22 03:39:19;;;;;;;3.27;1.20;;;;;;;11.26;80.11;98699.63;4977353;28;20230;-49
2022/05/22 03:41:46;;;;;;;2.70;1.00;;;;;;;11.35;79.47;98694.31;4977193;28;20233;-49
2022/05/22 03:44:16;;;;;;;2.20;0.97;;;;;;;11.59;77.81;98692.84;4977860;28;20566;-49
2022/05/22 03:46:48;;;;;;;2.93;0.90;;;;;;;11.74;77.05;98700.06;4977827;28;20221;-49
2022/05/22 03:49:18;;;;;;;1.87;1.00;;;;;;;11.74;77.33;98705.28;4977619;28;20289;-49
2022/05/22 03:51:50;;;;;;;3.83;0.93;;;;;;;11.76;75.70;98709.41;4969829;28;20214;-49
2022/05/22 03:54:19;;;;;;;3.73;0.97;;;;;;;11.75;76.48;98722.63;4985039;28;20613;-49
2022/05/22 03:56:49;;;;;;;1.27;0.80;;;;;;;11.74;76.53;98721.81;4969567;28;20201;-49
2022/05/22 03:59:26;;;;;;;1.50;0.90;;;;;;;11.63;77.14;98709.84;4970561;28;20313;-49
2022/05/22 04:01:56;;;;;;;2.87;0.80;;;;;;;11.62;76.61;98710.81;4977251;28;20249;-49
2022/05/22 04:04:23;;;;;;;2.40;0.90;;;;;;;11.62;77.19;98708.22;4977566;28;20197;-49
2022/05/22 04:07:10;;;;;;;1.57;0.90;;;;;;;11.63;78.68;98712.47;4995108;28;20210;-50
2022/05/22 04:09:37;;;;;;;4.60;1.30;;;;;;;11.63;79.20;98707.22;4977317;28;20198;-49
2022/05/22 04:12:13;;;;;;;10.27;1.10;;;;;;;11.71;77.01;98703.81;4977380;28;20255;-49
2022/05/22 04:14:43;;;;;;;3.30;1.00;;;;;;;11.77;76.76;98687.50;4969793;28;20571;-49
2022/05/22 04:17:12;;;;;;;1.30;0.80;;;;;;;11.84;76.66;98687.69;4977520;28;20286;-49
2022/05/22 04:19:39;;;;;;;5.30;0.83;;;;;;;11.84;77.36;98677.22;4995460;28;20230;-48
2022/05/22 04:22:10;;;;;;;2.80;0.80;;;;;;;11.87;76.26;98674.31;4976986;28;20227;-49
2022/05/22 04:27:26;;;;;;;3.70;0.83;;;;;;;12.09;74.39;98661.66;4974138;28;20189;-49
2022/05/22 04:29:53;;;;;;;3.83;0.70;;;;;;;12.13;75.50;98665.59;4973896;28;20218;-50
2022/05/22 04:32:23;;;;;;;4.20;0.73;;;;;;;12.18;75.04;98662.50;4966322;28;20731;-49
2022/05/22 04:34:52;;;;;;;2.03;0.80;;;;;;;12.14;76.48;98664.59;4967803;28;20693;-49
2022/05/22 04:37:21;;;;;;;3.07;1.57;;;;;;;12.16;75.45;98670.50;4991776;28;20598;-49
2022/05/22 04:39:53;;;;;;;1.93;0.80;;;;;;;12.10;75.87;98661.50;4964781;28;20196;-50
2022/05/22 04:42:21;;;;;;;2.07;0.80;;;;;;;12.06;76.24;98670.66;4960316;28;20216;-49
2022/05/22 04:44:48;;;;;;;1.20;0.60;;;;;;;12.06;76.50;98665.41;4994440;28;20545;-49
2022/05/22 04:47:18;;;;;;;1.93;0.80;;;;;;;12.08;77.83;98660.00;4995293;28;20206;-49
2022/05/22 04:50:06;;;;;;;2.63;0.90;;;;;;;12.15;77.01;98658.41;4977065;28;20285;-49
2022/05/22 04:52:36;;;;;;;3.47;0.87;;;;;;;12.14;77.69;98662.00;4976036;28;20306;-49
2022/05/22 04:55:05;;;;;;;2.57;0.70;;;;;;;12.21;77.71;98664.78;4976459;28;20214;-49
2022/05/22 04:57:31;;;;;;;4.07;0.80;;;;;;;12.25;77.80;98660.84;4976954;28;20198;-49
2022/05/22 04:59:59;;;;;;;3.00;0.90;;;;;;;12.30;77.27;98658.56;4976868;28;20681;-49
2022/05/22 05:02:27;;;;;;;3.63;0.80;;;;;;;12.35;77.77;98655.50;4976494;28;20213;-49
2022/05/22 05:04:59;;;;;;;4.73;0.93;;;;;;;12.44;76.63;98661.53;4976760;28;20209;-48
2022/05/22 05:07:31;;;;;;;4.23;0.67;;;;;;;12.51;76.88;98671.22;4976548;28;20208;-49
2022/05/22 05:10:11;;;;;;;4.47;0.90;;;;;;;12.59;76.88;98669.59;4977130;28;20202;-49
2022/05/22 05:13:04;;;;;;;3.60;0.87;;;;;;;12.66;76.15;98671.38;4990262;28;20228;-50
2022/05/22 05:15:33;;;;;;;3.13;0.87;;;;;;;12.76;75.92;98679.06;4970242;28;20270;-49
2022/05/22 05:18:14;;;;;;;2.97;0.90;;;;;;;12.72;75.62;98676.94;4976456;28;20197;-49
2022/05/22 05:20:51;;;;;;;3.20;0.87;;;;;;;12.78;75.77;98673.69;4976487;28;20197;-49
2022/05/22 05:23:20;;;;;;;2.23;0.70;;;;;;;12.82;75.28;98670.56;4984629;28;20353;-49
2022/05/22 05:26:14;;;;;;;2.33;0.80;;;;;;;12.85;74.48;98675.47;4976437;28;20662;-50
2022/05/22 05:28:41;;;;;;;4.20;0.90;;;;;;;12.87;74.91;98675.31;4976302;28;20699;-49
2022/05/22 05:31:10;;;;;;;3.43;1.10;;;;;;;12.85;75.51;98680.72;4975792;28;20200;-49
2022/05/22 05:33:39;;;;;;;3.77;1.10;;;;;;;12.88;75.98;98668.25;4973148;28;20199;-49
2022/05/22 05:36:33;;;;;;;4.40;1.50;;;;;;;12.93;76.82;98660.72;4982134;28;20201;-49
2022/05/22 05:39:05;;;;;;;1.70;1.10;;;;;;;13.08;76.14;98663.50;4993897;28;20275;-50
2022/05/22 05:41:56;;;;;;;3.93;0.90;;;;;;;13.26;76.21;98674.59;4976514;28;20688;-49
2022/05/22 05:44:28;;;;;;;4.33;1.27;;;;;;;13.45;75.97;98672.63;4972907;28;20194;-49
2022/05/22 05:47:01;;;;;;;2.83;1.00;;;;;;;13.62;75.48;98672.56;4973785;28;20225;-49
2022/05/22 05:49:37;;;;;;;2.27;1.10;;;;;;;13.71;75.42;98675.03;4976391;28;20288;-49
2022/05/22 05:52:24;;;;;;;2.00;1.10;;;;;;;13.79;74.80;98671.53;4972813;28;20691;-49
2022/05/22 05:54:56;;;;;;;2.50;1.10;;;;;;;13.82;75.21;98675.59;4972352;28;20807;-49
2022/05/22 05:57:45;;;;;;;3.60;0.90;;;;;;;13.92;75.21;98676.22;4972899;28;20676;-49
2022/05/22 06:00:15;;;;;;;9.83;1.17;;;;;;;13.99;75.73;98687.66;4975129;28;20223;-49
2022/05/22 06:02:42;;;;;;;2.70;1.10;;;;;;;14.02;76.19;98692.56;4993365;28;20303;-49
2022/05/22 06:05:10;;;;;;;1.90;0.90;;;;;;;14.04;77.29;98692.41;4975902;28;20211;-49
2022/05/22 06:07:37;;;;;;;2.43;1.20;;;;;;;14.15;76.70;98681.53;4978440;28;20209;-49
2022/05/22 06:10:11;;;;;;;5.43;1.07;;;;;;;14.30;75.21;98680.81;4974256;28;20209;-49
2022/05/22 06:12:53;;;;;;;3.77;1.10;;;;;;;14.50;74.29;98678.53;4975598;28;20220;-49
2022/05/22 06:15:21;;;;;;;3.80;1.33;;;;;;;14.72;71.53;98682.16;4967789;28;20242;-50
2022/05/22 06:17:48;;;;;;;3.73;1.20;;;;;;;15.07;70.85;98671.19;4975512;28;20213;-49
2022/05/22 06:20:22;;;;;;;2.37;1.10;;;;;;;15.44;70.07;98680.03;4980127;28;20236;-50
2022/05/22 06:22:49;;;;;;;3.70;1.20;;;;;;;15.63;68.92;98686.56;4972145;28;20219;-49
2022/05/22 06:25:44;;;;;;;2.47;1.13;;;;;;;16.02;67.67;98689.09;4987422;28;20638;-49
2022/05/22 06:28:32;;;;;;;2.53;1.30;;;;;;;16.32;66.46;98703.00;4986162;28;20558;-49
2022/05/22 06:31:09;;;;;;;1.83;1.20;;;;;;;16.49;65.41;98700.13;4975392;28;20195;-50
2022/05/22 06:34:01;;;;;;;3.07;1.30;;;;;;;16.65;65.61;98699.88;4974980;28;20217;-49
2022/05/22 06:36:50;;;;;;;2.10;1.20;;;;;;;16.85;63.54;98696.63;4972740;28;20297;-49
2022/05/22 06:39:51;;;;;;;2.83;1.00;;;;;;;16.90;62.16;98699.50;4983255;28;20210;-49
2022/05/22 06:42:22;;;;;;;1.70;1.10;;;;;;;16.72;60.42;98694.66;4986576;28;20218;-51
2022/05/22 06:45:16;;;;;;;4.17;1.20;;;;;;;16.82;61.40;98697.00;4991660;28;20567;-49
2022/05/22 06:47:59;;;;;;;2.83;1.40;;;;;;;16.98;61.45;98703.84;4966594;28;20198;-49
2022/05/22 06:50:32;;;;;;;1.83;1.07;;;;;;;17.06;61.60;98703.72;4984015;28;20252;-49
2022/05/22 06:53:20;;;;;;;3.80;1.13;;;;;;;17.16;61.81;98705.19;4955165;28;20221;-49
2022/05/22 06:56:11;;;;;;;2.97;1.47;;;;;;;17.19;63.38;98702.97;4974096;28;20238;-49
2022/05/22 06:59:13;;;;;;;2.20;1.30;;;;;;;17.35;60.26;98693.16;4982370;28;20667;-49
2022/05/22 07:01:59;;;;;;;3.13;1.47;;;;;;;17.36;59.88;98695.59;4974375;28;20230;-49
2022/05/22 07:05:01;;;;;;;3.47;1.30;;;;;;;17.68;59.69;98685.41;4952712;28;20204;-50
2022/05/22 07:07:43;;;;;;;2.60;1.50;;;;;;;17.91;59.32;98686.13;4973760;28;20286;-49
2022/05/22 07:13:43;;;;;;;4.07;1.60;;;;;;;17.99;58.25;98680.69;4986786;28;20203;-50
2022/05/22 07:16:25;;;;;;;2.23;1.37;;;;;;;18.06;59.48;98681.53;4972864;28;20350;-49
2022/05/22 07:19:05;;;;;;;3.23;1.40;;;;;;;18.18;59.46;98680.94;4965096;28;20220;-49
2022/05/22 07:21:44;;;;;;;2.20;1.20;;;;;;;18.41;57.89;98676.13;4961316;28;20216;-49
2022/05/22 07:24:28;;;;;;;2.87;1.10;;;;;;;18.50;59.68;98679.41;4990552;28;20558;-49
2022/05/22 07:27:14;;;;;;;2.90;1.40;;;;;;;18.59;59.19;98674.75;4972296;28;20306;-49
2022/05/22 07:30:02;;;;;;;2.60;1.20;;;;;;;18.73;58.74;98678.19;4987465;28;20748;-49
2022/05/22 07:32:41;;;;;;;1.90;1.10;;;;;;;18.83;56.59;98672.53;4963937;28;20221;-49
2022/05/22 07:35:39;;;;;;;2.57;1.40;;;;;;;18.91;55.00;98674.97;4921540;28;20227;-49
2022/05/22 07:38:25;;;;;;;3.93;1.07;;;;;;;19.00;55.18;98679.06;4977655;28;20238;-49
2022/05/22 07:41:11;;;;;;;2.83;1.20;;;;;;;19.03;53.87;98680.47;4970236;28;20292;-49
2022/05/22 07:43:58;;;;;;;2.93;1.43;;;;;;;18.92;53.71;98670.47;4980438;28;20212;-50
2022/05/22 07:46:44;;;;;;;4.63;1.60;;;;;;;18.78;54.26;98669.69;4959922;28;20225;-49
2022/05/22 07:52:42;;;;;;;2.10;1.50;;;;;;;18.95;53.98;98665.59;4986149;28;20300;-49
2022/05/22 07:55:35;;;;;;;2.73;1.37;;;;;;;18.79;53.84;98655.44;4977985;28;20576;-49
2022/05/22 07:58:18;;;;;;;4.37;1.63;;;;;;;18.93;53.43;98649.13;4992072;28;20205;-49
2022/05/22 08:00:48;;;;;;;2.93;1.63;;;;;;;18.93;55.03;98654.41;4991602;28;20310;-49
2022/05/22 08:03:35;;;;;;;3.00;1.87;;;;;;;19.05;53.92;98654.63;4991320;28;20193;-50
2022/05/22 08:06:03;;;;;;;3.73;1.40;;;;;;;18.97;54.95;98653.03;4973741;28;20209;-49
2022/05/22 08:08:37;;;;;;;5.07;1.57;;;;;;;19.06;55.46;98653.63;4977360;28;20227;-49
2022/05/22 08:11:24;;;;;;;3.90;1.43;;;;;;;18.86;54.58;98648.31;4982976;28;20739;-49
2022/05/22 08:13:59;;;;;;;3.30;1.40;;;;;;;18.84;55.18;98647.72;4966016;28;20609;-49
2022/05/22 08:16:34;;;;;;;2.77;1.40;;;;;;;18.90;55.06;98641.59;4974220;28;20654;-49
2022/05/22 08:19:20;;;;;;;2.33;1.30;;;;;;;18.82;53.02;98641.81;4996219;28;20208;-49
2022/05/22 08:22:13;;;;;;;3.13;1.20;;;;;;;18.79;53.11;98642.22;4977915;28;20221;-51
2022/05/22 08:25:01;;;;;;;3.33;1.10;;;;;;;18.87;52.02;98642.00;4995385;28;20203;-49
2022/05/22 08:27:30;;;;;;;2.47;1.23;;;;;;;18.86;53.20;98645.69;4977476;28;20198;-50
2022/05/22 08:29:58;;;;;;;3.13;1.20;;;;;;;19.10;52.83;98640.78;4969301;28;20726;-51
2022/05/22 08:32:27;;;;;;;2.17;1.23;;;;;;;19.15;52.20;98639.16;4968962;28;20264;-51
2022/05/22 08:34:54;;;;;;;1.97;1.30;;;;;;;19.29;51.80;98637.28;4987242;28;20219;-50
2022/05/22 08:37:21;;;;;;;2.00;1.20;;;;;;;19.21;51.04;98626.91;4987990;28;20211;-50
2022/05/22 08:39:48;;;;;;;4.03;1.37;;;;;;;19.27;51.38;98623.44;4987440;28;20570;-51
2022/05/22 08:42:20;;;;;;;2.13;1.10;;;;;;;19.44;52.47;98629.13;4985610;28;20240;-50
2022/05/22 08:44:51;;;;;;;3.13;1.23;;;;;;;19.60;51.77;98625.19;4980354;28;20249;-50
2022/05/22 08:47:23;;;;;;;3.73;1.40;;;;;;;19.78;50.58;98613.09;4985809;28;20245;-50
2022/05/22 08:49:58;;;;;;;1.90;1.37;;;;;;;19.97;51.42;98616.69;4986564;28;20269;-49
2022/05/22 08:52:32;;;;;;;3.70;1.27;;;;;;;20.16;50.57;98616.78;4991350;28;20601;-50
2022/05/22 08:55:06;;;;;;;2.50;1.50;;;;;;;20.18;50.22;98615.53;4991277;28;20576;-50
2022/05/22 09:00:27;;;;;;;5.23;1.30;;;;;;;20.56;47.92;98613.03;4984832;28;20200;-50
2022/05/22 09:03:00;;;;;;;3.20;1.00;;;;;;;20.47;47.67;98610.63;4987745;28;20352;-50
2022/05/22 09:05:30;;;;;;;4.63;1.13;;;;;;;20.44;48.38;98600.47;4989166;28;20288;-50
2022/05/22 09:08:02;;;;;;;3.30;1.00;;;;;;;20.67;45.74;98604.38;4988671;28;20285;-50
2022/05/22 09:10:49;;;;;;;1.50;0.70;;;;;;;20.70;45.45;98603.09;4989560;28;20739;-50
2022/05/22 09:13:27;;;;;;;3.07;0.80;;;;;;;20.68;43.14;98598.03;4988177;28;20224;-48
2022/05/22 09:16:00;;;;;;;2.20;0.70;;;;;;;20.46;43.29;98597.63;4987474;28;20214;-51
2022/05/22 09:18:32;;;;;;;1.73;0.80;;;;;;;20.39;43.80;98595.00;4989087;28;20200;-50
2022/05/22 09:21:07;;;;;;;1.20;0.70;;;;;;;20.49;46.83;98592.69;4988416;28;20277;-48
2022/05/22 09:23:56;;;;;;;2.17;1.00;;;;;;;20.63;46.35;98584.63;4987974;28;20195;-48
2022/05/22 09:26:41;;;;;;;3.67;1.07;;;;;;;20.42;46.95;98575.22;4988287;28;20500;-49
2022/05/22 09:29:48;;;;;;;4.93;1.00;;;;;;;20.63;44.81;98579.31;4990164;28;20198;-47
2022/05/22 09:32:27;;;;;;;2.80;0.90;;;;;;;20.53;45.22;98568.38;4987566;28;20228;-50
2022/05/22 09:35:05;;;;;;;2.57;0.80;;;;;;;20.76;46.28;98576.53;4971937;28;20222;-50
2022/05/22 09:37:42;;;;;;;1.83;0.80;;;;;;;20.99;46.07;98569.81;4987276;28;20259;-50
2022/05/22 09:40:21;;;;;;;1.47;0.87;;;;;;;21.26;46.00;98566.06;4985800;28;20248;-50
2022/05/22 09:43:06;;;;;;;3.40;1.03;;;;;;;21.40;44.48;98564.88;4986668;28;20225;-50
2022/05/22 09:45:45;;;;;;;1.80;0.83;;;;;;;21.57;42.47;98559.75;4989190;28;20201;-50
2022/05/22 09:48:29;;;;;;;2.33;0.80;;;;;;;21.75;43.39;98555.47;4990408;28;20198;-50
2022/05/22 09:51:02;;;;;;;2.87;0.87;;;;;;;22.03;41.99;98554.03;4985219;28;20644;-49
2022/05/22 09:53:44;;;;;;;0.93;0.57;;;;;;;22.44;41.39;98549.72;4989012;28;20313;-49
2022/05/22 09:56:26;;;;;;;1.27;0.60;;;;;;;22.76;38.13;98559.25;4989978;28;20718;-49
2022/05/22 09:59:12;;;;;;;3.43;0.83;;;;;;;22.68;38.65;98555.06;4992254;28;20191;-49
2022/05/22 10:01:45;;;;;;;2.53;0.70;;;;;;;22.64;40.31;98548.59;4992222;28;20744;-49
2022/05/22 10:04:28;;;;;;;2.93;0.80;;;;;;;22.72;38.86;98540.25;4972393;28;20241;-49
2022/05/22 10:06:59;;;;;;;2.33;0.80;;;;;;;22.94;39.94;98543.13;4990424;28;20203;-49
2022/05/22 10:09:41;;;;;;;2.50;0.70;;;;;;;23.26;38.72;98536.63;4991348;28;20201;-49
2022/05/22 10:12:20;;;;;;;2.27;0.97;;;;;;;22.89;37.76;98529.69;4990448;28;20225;-52
2022/05/22 10:15:01;;;;;;;1.87;0.80;;;;;;;22.97;39.53;98526.69;4974963;28;20205;-49
2022/05/22 10:17:42;;;;;;;3.40;0.73;;;;;;;23.00;40.37;98528.06;4990663;28;20231;-50
2022/05/22 10:20:18;;;;;;;1.27;0.60;;;;;;;22.87;38.09;98518.47;4991342;28;20247;-50
2022/05/22 10:22:57;;;;;;;1.57;0.67;;;;;;;22.81;39.54;98512.25;4978127;28;20581;-50
2022/05/22 10:25:39;;;;;;;1.97;0.90;;;;;;;22.81;38.77;98506.94;4967398;28;20271;-49
2022/05/22 10:28:12;;;;;;;2.60;0.80;;;;;;;22.80;39.55;98501.81;4973292;28;20201;-49
2022/05/22 10:30:44;;;;;;;2.90;0.90;;;;;;;22.30;40.22;98495.13;4986459;28;20195;-49
2022/05/22 10:33:20;;;;;;;2.87;0.57;;;;;;;22.39;39.83;98489.25;4974655;28;20287;-49
2022/05/22 10:35:51;;;;;;;2.50;0.70;;;;;;;22.46;41.75;98483.81;4987765;28;20572;-49
2022/05/22 10:38:21;;;;;;;2.53;0.87;;;;;;;22.54;39.74;98488.00;4991101;28;20211;-50
2022/05/22 10:43:40;;;;;;;2.73;1.10;;;;;;;22.59;41.42;98466.81;4950779;28;20196;-49
2022/05/22 10:46:07;;;;;;;2.90;0.80;;;;;;;22.75;40.96;98473.28;4992382;28;20195;-49
2022/05/22 10:48:46;;;;;;;2.77;0.97;;;;;;;22.79;40.22;98471.75;4992458;28;20207;-48
2022/05/22 10:51:23;;;;;;;1.53;0.80;;;;;;;22.84;40.24;98461.22;4984406;28;20215;-49
2022/05/22 10:53:53;;;;;;;4.97;0.70;;;;;;;22.95;40.31;98461.44;4992016;28;20770;-49
2022/05/22 10:56:22;;;;;;;4.07;0.87;;;;;;;23.11;38.26;98454.53;4974752;28;20212;-49
2022/05/22 10:58:54;;;;;;;3.23;1.10;;;;;;;23.09;39.02;98452.13;4974856;28;20196;-49
2022/05/22 11:01:23;;;;;;;2.37;1.00;;;;;;;23.18;39.44;98449.88;4991384;28;20200;-49
2022/05/22 11:04:02;;;;;;;3.37;1.00;;;;;;;23.10;40.18;98461.72;4992285;28;20205;-49
2022/05/22 11:06:30;;;;;;;2.27;0.80;;;;;;;23.31;39.74;98453.34;4984673;28;20600;-50
2022/05/22 11:08:58;;;;;;;1.40;0.77;;;;;;;23.46;38.01;98453.63;4991949;28;20568;-50
2022/05/22 11:11:27;;;;;;;2.33;1.67;;;;;;;23.74;38.20;98454.63;4984356;28;20219;-48
2022/05/22 11:14:06;;;;;;;1.53;0.70;;;;;;;23.31;37.33;98450.69;4977396;28;20280;-49
2022/05/22 11:16:34;;;;;;;2.13;0.97;;;;;;;23.66;37.05;98449.69;4963343;28;20582;-49
2022/05/22 11:19:10;;;;;;;1.17;0.80;;;;;;;23.86;36.11;98455.31;4980880;28;20309;-49
2022/05/22 11:21:50;;;;;;;1.57;0.67;;;;;;;24.05;37.24;98449.78;4987326;28;20263;-49
2022/05/22 11:24:29;;;;;;;3.83;0.90;;;;;;;24.11;39.46;98448.03;4989642;28;20205;-47
2022/05/22 11:27:15;;;;;;;1.73;0.90;;;;;;;24.06;36.14;98439.94;4984301;28;20189;-48
2022/05/22 11:29:58;;;;;;;2.27;1.00;;;;;;;24.02;36.76;98448.44;4987648;28;20285;-51
2022/05/22 11:32:42;;;;;;;1.00;0.90;;;;;;;24.05;38.75;98449.00;4984007;28;20220;-48
2022/05/22 11:35:32;;;;;;;3.23;0.90;;;;;;;24.17;37.67;98447.03;4992466;28;20213;-49
2022/05/22 11:38:13;;;;;;;2.17;0.90;;;;;;;24.08;36.51;98441.31;4980321;28;20227;-48
2022/05/22 11:40:49;;;;;;;2.20;0.73;;;;;;;24.23;34.77;98445.25;4983650;28;20468;-48
2022/05/22 11:43:45;;;;;;;2.03;0.80;;;;;;;24.22;35.35;98443.63;4984205;28;20313;-49
2022/05/22 11:46:20;;;;;;;2.37;0.80;;;;;;;24.39;35.05;98430.25;4983365;28;20210;-48
2022/05/22 11:48:56;;;;;;;3.40;0.90;;;;;;;24.47;36.78;98430.66;4984696;28;20606;-49
2022/05/22 11:51:44;;;;;;;1.37;0.73;;;;;;;24.41;35.54;98420.97;4988756;28;20250;-49
2022/05/22 11:54:33;;;;;;;2.87;0.80;;;;;;;24.49;34.46;98413.59;4990097;28;20234;-49
2022/05/22 11:57:24;;;;;;;2.23;0.90;;;;;;;24.47;36.29;98403.16;4988217;28;20627;-49
2022/05/22 12:00:08;;;;;;;2.10;0.80;;;;;;;24.80;35.41;98406.78;4990328;28;20213;-49
2022/05/22 12:03:07;;;;;;;2.37;0.80;;;;;;;24.61;35.45;98390.25;4988873;28;20220;-48
2022/05/22 12:05:47;;;;;;;2.13;0.90;;;;;;;24.82;34.20;98385.97;4990042;28;20341;-50
2022/05/22 12:08:34;;;;;;;3.30;1.20;;;;;;;24.90;35.46;98382.09;4993328;28;20313;-50
2022/05/22 12:11:11;;;;;;;1.43;1.00;;;;;;;24.94;34.45;98387.72;4989020;28;20307;-49
2022/05/22 12:13:45;;;;;;;2.93;0.63;;;;;;;25.14;34.84;98382.59;4989715;28;20229;-50
2022/05/22 12:16:20;;;;;;;2.37;1.00;;;;;;;25.37;34.73;98379.84;4988017;28;20210;-50
2022/05/22 12:19:02;;;;;;;3.60;0.83;;;;;;;25.39;33.51;98367.84;4992152;28;20221;-49
2022/05/22 12:21:42;;;;;;;1.73;0.80;;;;;;;25.31;33.81;98353.06;4988966;28;20207;-49
2022/05/22 12:24:20;;;;;;;2.43;0.80;;;;;;;25.06;34.46;98353.66;4989264;28;20264;-49
2022/05/22 12:26:50;;;;;;;1.33;0.80;;;;;;;25.18;35.35;98346.28;4975404;28;20629;-49
2022/05/22 12:29:25;;;;;;;2.23;1.10;;;;;;;25.16;35.02;98337.72;4991778;28;20230;-50